Latest Weather Observations for Cressy

IDT60801

Issued at 7:35 pm EST Saturday 20 September 2014 (issued every 30 minutes, with the page automatically refreshed every 10 minutes)

About weather observations | Map of weather stations | Latest weather observations for TAS | Other Formats
Station Details ID: 091306 Name: CRESSY RESEARCH STATION Lat: -41.73 Lon: 147.08 Height: 148.0 m
Data from the previous 72 hours. | See also: Recent months at Cressy
Date/Time
EST
Temp
°C
App
Temp
°C
Dew
Point
Rel
Hum
%
Delta-T
°C
Wind Press
QNH
hPa
Press
MSL
hPa
Rain
since 9 am
mm
Dir
 
Spd
km/h
Gust
km/h
Spd
kts
Gust
kts
20/07:30pm 9.2 6.4 3.2 66 2.6 NNW 7 11 4 6 - - 0.0
20/07:00pm 8.4 5.7 3.7 72 2.0 SW 7 11 4 6 - - 0.0
20/06:30pm 10.0 6.9 3.7 65 2.8 WNW 9 19 5 10 - - 0.0
20/06:00pm 12.1 8.0 4.1 58 3.6 NNW 15 26 8 14 - - 0.0
20/05:30pm 13.4 8.5 4.3 54 4.2 NW 19 26 10 14 - - 0.0
20/05:00pm 15.3 11.2 4.4 48 5.1 N 15 20 8 11 - - 0.0
20/04:30pm 15.2 10.3 5.1 51 4.8 NNW 20 30 11 16 - - 0.0
20/04:00pm 16.5 11.8 5.2 47 5.4 NNW 19 32 10 17 - - 0.0
20/03:30pm 17.4 13.6 6.0 47 5.6 NNW 15 20 8 11 - - 0.0
20/03:00pm 17.3 14.0 4.6 43 6.1 W 11 15 6 8 - - 0.0
20/02:30pm 17.0 12.5 4.3 43 6.0 N 17 24 9 13 - - 0.0
20/02:00pm 17.2 13.4 5.8 47 5.6 WSW 15 20 8 11 - - 0.0
20/01:30pm 17.7 14.8 6.3 47 5.7 N 11 24 6 13 - - 0.0
20/01:00pm 17.3 14.6 7.4 52 5.0 N 11 20 6 11 - - 0.0
20/12:30pm 16.6 14.0 5.9 49 5.2 NNE 9 15 5 8 - - 0.0
20/12:00pm 16.2 13.8 7.2 55 4.5 NE 9 19 5 10 - - 0.0
20/11:30am 15.7 12.9 5.3 50 5.0 N 9 17 5 9 - - 0.0
20/11:00am 15.5 12.9 6.0 53 4.6 NNE 9 17 5 9 - - 0.0
20/10:30am 15.1 12.7 6.9 58 4.0 NE 9 13 5 7 - - 0.0
20/10:00am 14.3 11.6 5.4 55 4.2 NE 9 15 5 8 - - 0.0
20/09:30am 13.8 10.8 7.6 66 3.1 NNE 13 15 7 8 - - 0.0
20/09:00am 12.2 8.9 6.3 67 2.8 NNE 13 17 7 9 - - 0.0
20/08:30am 12.3 10.3 7.2 71 2.5 ENE 7 11 4 6 - - 0.0
20/08:00am 10.4 8.2 6.2 75 2.0 NNE 7 13 4 7 - - 0.0
20/07:30am 9.5 7.5 6.9 84 1.2 NE 7 11 4 6 - - 0.0
20/07:00am 7.6 5.9 6.1 90 0.7 W 4 9 2 5 - - 0.0
20/06:30am 6.0 2.7 4.3 89 0.7 N 11 13 6 7 - - 0.0
20/06:00am 8.1 5.5 4.3 77 1.7 NNW 7 9 4 5 - - 0.0
20/05:30am 6.8 3.9 4.5 85 1.0 N 9 13 5 7 - - 0.0
20/05:00am 6.2 3.1 3.4 82 1.2 ESE 9 13 5 7 - - 0.0
20/04:30am 7.8 4.5 4.7 81 1.4 E 11 15 6 8 - - 0.0
20/04:00am 8.7 5.5 5.1 78 1.6 N 11 15 6 8 - - 0.0
20/03:30am 8.8 6.0 5.2 78 1.6 N 9 13 5 7 - - 0.0
20/03:00am 9.5 6.8 5.5 76 1.8 N 9 17 5 9 - - 0.0
20/02:30am 10.2 6.6 4.8 69 2.4 NNE 13 15 7 8 - - 0.0
20/02:00am 10.7 7.0 4.4 65 2.8 E 13 20 7 11 - - 0.0
20/01:30am 10.7 8.4 4.6 66 2.8 SSW 6 9 3 5 - - 0.0
20/01:00am 11.1 7.5 4.8 65 2.9 SW 13 20 7 11 - - 0.0
20/12:30am 10.4 6.7 4.5 67 2.7 SW 13 22 7 12 - - 0.0
20/12:00am 11.5 8.6 4.5 62 3.2 SW 9 22 5 12 - - 0.0
 
Date/Time
EST
Temp
°C
App
Temp
°C
Dew
Point
Rel
Hum
%
Delta-T
°C
Wind Press
QNH
hPa
Press
MSL
hPa
Rain
since 9 am
mm
Dir
 
Spd
km/h
Gust
km/h
Spd
kts
Gust
kts
19/11:30pm 8.1 4.9 3.2 71 2.1 NNE 9 11 5 6 - - 0.0
19/11:00pm 10.4 7.4 4.1 65 2.8 WSW 9 19 5 10 - - 0.0
19/10:30pm 9.7 5.6 4.1 68 2.5 WSW 15 20 8 11 - - 0.0
19/10:00pm 11.6 6.4 3.4 57 3.6 SW 20 28 11 15 - - 0.0
19/09:30pm 11.4 7.0 2.9 56 3.7 SW 15 20 8 11 - - 0.0
19/09:00pm 12.2 8.6 2.9 53 4.1 NW 11 20 6 11 - - 0.0
19/08:30pm 12.4 8.4 2.8 52 4.2 W 13 19 7 10 - - 0.0
19/08:00pm 11.7 6.0 2.7 54 3.9 NNW 22 37 12 20 - - 0.0
19/07:30pm 11.6 8.0 2.9 55 3.8 N 11 17 6 9 - - 0.0
19/07:00pm 11.7 7.0 3.2 56 3.8 N 17 24 9 13 - - 0.0
19/06:30pm 11.5 7.2 3.3 57 3.6 N 15 20 8 11 - - 0.0
19/06:00pm 11.9 8.4 1.5 49 4.4 NE 9 15 5 8 - - 0.0
19/05:30pm 13.0 8.4 1.7 46 4.9 N 15 28 8 15 - - 0.0
19/05:00pm 13.3 9.4 1.0 43 5.3 N 11 26 6 14 - - 0.0
19/04:30pm 13.6 9.5 2.2 46 5.0 N 13 30 7 16 - - 0.0
19/04:00pm 13.6 10.5 3.4 50 4.6 NNW 9 15 5 8 - - 0.0
19/03:30pm 13.2 9.8 4.1 54 4.2 NE 11 15 6 8 - - 0.0
19/03:00pm 13.9 10.4 1.5 43 5.4 NNW 9 19 5 10 - - 0.0
19/02:30pm 13.5 9.4 2.4 47 4.9 W 13 19 7 10 - - 0.0
19/02:00pm 13.3 8.5 4.7 56 4.0 N 19 28 10 15 - - 0.0
19/01:30pm 13.7 9.8 3.2 49 4.7 N 13 20 7 11 - - 0.0
19/01:00pm 13.7 10.1 2.9 48 4.8 WNW 11 30 6 16 - - 0.0
19/12:30pm 13.3 9.5 3.9 53 4.3 WNW 13 22 7 12 - - 0.0
19/12:00pm 13.1 9.2 3.2 51 4.4 NNW 13 17 7 9 - - 0.0
19/11:30am 13.7 9.9 4.0 52 4.5 NW 13 28 7 15 - - 0.0
19/11:00am 13.7 9.0 3.2 49 4.7 W 17 30 9 16 - - 0.0
19/10:30am 13.2 7.6 3.6 52 4.3 W 22 41 12 22 - - 0.0
19/10:00am 12.8 5.8 4.0 55 4.0 WNW 30 41 16 22 - - 0.0
19/09:45am 12.9 6.3 4.1 55 4.0 WNW 28 39 15 21 - - 0.0
19/09:30am 13.5 11.1 5.4 58 3.8 SE 7 9 4 5 - - 0.0
19/09:00am 12.3 9.6 5.7 64 3.1 E 9 13 5 7 - - 0.0
19/08:30am 11.1 7.3 5.8 70 2.5 N 15 22 8 12 - - 0.0
19/08:00am 9.6 4.1 5.8 77 1.8 N 24 33 13 18 - - 0.0
19/07:30am 8.9 5.1 5.8 81 1.4 N 15 20 8 11 - - 0.0
19/07:00am 7.9 4.1 5.7 86 1.0 E 15 20 8 11 - - 0.0
19/06:30am 7.7 3.2 6.0 89 0.8 N 19 24 10 13 - - 0.0
19/06:00am 7.6 2.9 6.1 90 0.7 N 20 26 11 14 - - 0.0
19/05:30am 6.8 1.6 5.6 92 0.5 N 22 30 12 16 - - 0.0
19/05:00am 7.4 2.7 5.0 85 1.1 N 19 28 10 15 - - 0.0
19/04:30am 7.2 1.9 5.0 86 1.0 N 22 30 12 16 - - 0.0
19/04:00am 7.7 1.7 5.2 84 1.1 N 26 35 14 19 - - 0.0
19/03:30am 7.2 0.7 4.7 84 1.1 N 28 37 15 20 - - 0.0
19/03:00am 7.1 0.5 4.1 81 1.3 N 28 37 15 20 - - 0.0
19/02:30am 7.2 0.9 3.6 78 1.5 N 26 35 14 19 - - 0.0
19/02:00am 7.0 1.0 3.6 79 1.5 N 24 32 13 17 - - 0.0
19/01:30am 7.0 1.0 3.3 77 1.6 N 24 33 13 18 - - 0.0
19/01:00am 7.5 2.5 3.6 76 1.7 N 19 26 10 14 - - 0.0
19/12:30am 7.9 1.9 3.6 74 1.9 N 24 32 13 17 - - 0.0
19/12:00am 8.0 4.2 3.7 74 1.9 N 13 28 7 15 - - 0.0
 
Date/Time
EST
Temp
°C
App
Temp
°C
Dew
Point
Rel
Hum
%
Delta-T
°C
Wind Press
QNH
hPa
Press
MSL
hPa
Rain
since 9 am
mm
Dir
 
Spd
km/h
Gust
km/h
Spd
kts
Gust
kts
18/11:30pm 5.7 2.8 1.6 75 1.7 N 6 11 3 6 - - 0.0
18/11:00pm 8.0 3.6 2.7 69 2.2 N 15 26 8 14 - - 0.0
18/10:30pm 7.6 4.3 2.7 71 2.1 N 9 19 5 10 - - 0.0
18/10:00pm 8.9 3.5 2.5 64 2.7 NW 20 26 11 14 - - 0.0
18/09:30pm 8.5 3.8 3.1 69 2.3 N 17 22 9 12 - - 0.0
18/09:00pm 7.8 4.8 2.3 68 2.3 N 7 11 4 6 - - 0.0
18/08:30pm 9.3 6.4 1.7 59 3.2 SSE 6 9 3 5 - - 0.0
18/08:00pm 10.0 4.5 1.6 56 3.5 WSW 20 35 11 19 - - 0.0
18/07:30pm 9.9 6.1 2.0 58 3.4 WSW 11 19 6 10 - - 0.0
18/07:00pm 10.1 4.6 0.7 52 3.9 WSW 19 33 10 18 - - 0.0
18/06:30pm 10.2 4.0 0.0 49 4.1 W 22 32 12 17 - - 0.0
18/06:00pm 9.7 2.9 0.9 54 3.6 W 26 33 14 18 - - 0.0
18/05:30pm 10.9 4.0 2.5 56 3.6 WNW 28 39 15 21 - - 0.0
18/05:00pm 11.8 4.9 2.5 53 4.1 WNW 28 43 15 23 - - 0.0
18/04:30pm 12.1 6.9 2.3 51 4.3 W 19 32 10 17 - - 0.0
18/04:00pm 11.8 5.9 2.0 51 4.2 NW 22 30 12 16 - - 0.0
18/03:30pm 12.2 4.6 0.6 45 4.9 WNW 30 54 16 29 - - 0.0
18/03:00pm 12.8 6.5 1.5 46 4.9 WNW 24 39 13 21 - - 0.0
18/02:30pm 12.1 4.8 2.3 51 4.3 NW 30 43 16 23 - - 0.0
18/02:00pm 13.0 6.4 2.0 47 4.8 NW 26 35 14 19 - - 0.0
18/01:30pm 12.8 7.0 2.1 48 4.7 WNW 22 33 12 18 - - 0.0
18/01:00pm 12.3 6.1 2.2 50 4.4 WNW 24 35 13 19 - - 0.0
18/12:30pm 12.3 6.2 3.0 53 4.1 WNW 24 33 13 18 - - 0.0
18/12:00pm 11.6 7.2 2.6 54 3.9 WNW 15 28 8 15 - - 0.0
18/11:30am 11.0 6.8 1.5 52 4.0 WSW 13 20 7 11 - - 0.0
18/11:00am 11.2 7.7 1.5 51 4.1 W 9 20 5 11 - - 0.0
18/10:30am 11.1 5.7 1.4 51 4.1 N 19 30 10 16 - - 0.0
18/10:00am 11.0 7.8 0.7 49 4.3 WSW 7 15 4 8 - - 0.0
18/09:30am 10.6 7.2 1.7 54 3.8 NW 9 13 5 7 - - 0.0
18/09:00am 9.9 7.1 2.0 58 3.4 E 6 9 3 5 - - 0.0
18/08:30am 8.1 4.7 2.1 66 2.5 N 9 15 5 8 - - 0.0
18/08:00am 8.2 5.1 1.6 63 2.7 N 7 11 4 6 - - 0.0
18/07:30am 7.1 3.2 1.0 65 2.5 NNE 11 15 6 8 - - 0.0
18/07:00am 5.8 2.9 1.2 72 1.8 ENE 6 9 3 5 - - 0.0
18/06:30am 5.5 2.0 1.1 73 1.7 ENE 9 15 5 8 - - 0.0
18/06:00am 6.5 2.9 0.4 65 2.4 N 9 15 5 8 - - 0.0
18/05:30am 7.1 4.0 0.1 61 2.8 N 6 7 3 4 - - 0.0
18/05:00am 6.9 2.2 0.8 65 2.4 SE 15 24 8 13 - - 0.0
18/04:30am 6.5 2.5 0.8 67 2.3 SE 11 13 6 7 - - 0.0
18/04:00am 7.9 3.1 0.2 58 3.1 S 15 24 8 13 - - 0.0
18/03:30am 7.6 2.1 0.6 61 2.8 S 19 24 10 13 - - 0.0
18/03:00am 8.8 6.1 0.5 56 3.4 N 4 11 2 6 - - 0.0
18/02:30am 8.0 4.5 1.4 63 2.7 NE 9 19 5 10 - - 0.0
18/02:00am 6.9 3.4 1.4 68 2.2 N 9 15 5 8 - - 0.0
18/01:30am 6.5 1.8 1.0 68 2.2 NNE 15 22 8 12 - - 0.0
18/01:00am 5.9 2.0 1.1 71 1.9 N 11 22 6 12 - - 0.0
18/12:30am 5.6 1.6 0.6 70 2.0 N 11 19 6 10 - - 0.0
18/12:00am 5.5 2.3 0.7 71 1.9 E 7 13 4 7 - - 0.0
 
Date/Time
EST
Temp
°C
App
Temp
°C
Dew
Point
Rel
Hum
%
Delta-T
°C
Wind Press
QNH
hPa
Press
MSL
hPa
Rain
since 9 am
mm
Dir
 
Spd
km/h
Gust
km/h
Spd
kts
Gust
kts
17/11:30pm 6.0 2.4 0.6 68 2.1 ENE 9 11 5 6 - - 0.0
17/11:00pm 6.5 2.5 0.4 65 2.4 NNW 11 17 6 9 - - 0.0
17/10:30pm 4.4 0.8 0.4 75 1.5 N 9 13 5 7 - - 0.0
17/10:00pm 4.5 1.4 0.1 73 1.7 N 6 11 3 6 - - 0.0
17/09:30pm 4.1 0.3 -0.5 72 1.7 E 9 11 5 6 - - 0.0
17/09:00pm 4.7 1.9 -0.3 70 1.9 S 4 11 2 6 - - 0.0
17/08:30pm 4.1 0.4 -0.3 73 1.7 N 9 13 5 7 - - 0.0
17/08:00pm 4.7 0.5 -0.7 68 2.0 SSE 11 15 6 8 - - 0.0

Other Formats:

Comma delimited format used in spreadsheet applications
http://www.bom.gov.au/fwo/IDT60801/IDT60801.95969.axf

JavaScript Object Notation format (JSON) in row-major order
http://www.bom.gov.au/fwo/IDT60801/IDT60801.95969.json